createdAt,value
2017-12-09T00:02:08.356Z,92.27
2017-12-09T00:04:36.038Z,92.43
2017-12-09T00:07:03.741Z,92.57
2017-12-09T00:09:31.391Z,92.21
2017-12-09T00:11:59.142Z,92.24
2017-12-09T00:14:26.824Z,92.39
2017-12-09T00:16:54.616Z,92.63
2017-12-09T00:19:22.283Z,91.98
2017-12-09T00:21:49.950Z,92.01
2017-12-09T00:24:17.714Z,91.75
2017-12-09T00:26:45.426Z,91.69
2017-12-09T00:29:13.118Z,91.22
2017-12-09T00:31:40.786Z,91.49
2017-12-09T00:34:08.482Z,91.23
2017-12-09T00:36:36.181Z,91.24
2017-12-09T00:39:03.864Z,90.71
2017-12-09T00:41:31.514Z,91.00
2017-12-09T00:43:59.220Z,90.57
2017-12-09T00:46:26.886Z,90.88
2017-12-09T00:48:54.639Z,90.77
2017-12-09T00:51:22.321Z,90.80
2017-12-09T00:53:50.012Z,90.90
2017-12-09T00:56:17.676Z,90.74
2017-12-09T00:58:45.366Z,90.43
2017-12-09T01:01:13.030Z,90.74
2017-12-09T01:03:40.738Z,90.71
2017-12-09T01:06:08.518Z,90.91
2017-12-09T01:08:36.213Z,90.92
2017-12-09T01:11:03.876Z,90.42
2017-12-09T01:13:31.594Z,90.40
2017-12-09T01:16:10.902Z,90.73
2017-12-09T01:18:50.090Z,90.52
2017-12-09T01:21:17.755Z,90.27
2017-12-09T01:23:45.438Z,90.46
2017-12-09T01:26:13.118Z,90.22
2017-12-09T01:28:40.809Z,90.70
2017-12-09T01:31:08.486Z,90.15
2017-12-09T01:33:36.184Z,90.12
2017-12-09T01:36:03.849Z,90.46
2017-12-09T01:38:31.539Z,90.71
2017-12-09T01:40:59.195Z,90.74
2017-12-09T01:43:26.892Z,90.98
2017-12-09T01:45:54.542Z,90.75
2017-12-09T01:48:22.258Z,90.17
2017-12-09T01:50:49.958Z,89.72
2017-12-09T01:53:17.642Z,90.02
2017-12-09T01:55:45.305Z,90.36
2017-12-09T01:58:12.999Z,90.14
2017-12-09T02:00:40.643Z,90.41
2017-12-09T02:03:08.331Z,90.63
2017-12-09T02:05:35.990Z,90.71
2017-12-09T02:08:03.662Z,90.48
2017-12-09T02:10:31.346Z,90.85
2017-12-09T02:12:58.999Z,91.14
2017-12-09T02:15:26.683Z,90.51
2017-12-09T02:17:54.358Z,90.38
2017-12-09T02:20:22.047Z,90.17
2017-12-09T02:22:49.701Z,90.11
2017-12-09T02:25:17.382Z,90.48
2017-12-09T02:27:45.023Z,90.46
2017-12-09T02:30:12.715Z,90.44
2017-12-09T02:32:40.370Z,90.66
2017-12-09T02:35:08.059Z,90.54
2017-12-09T02:37:35.706Z,90.77
2017-12-09T02:40:03.360Z,90.88
2017-12-09T02:42:31.058Z,90.64
2017-12-09T02:44:58.723Z,90.58
2017-12-09T02:47:26.399Z,90.42
2017-12-09T02:49:54.048Z,90.18
2017-12-09T02:52:21.730Z,90.30
2017-12-09T02:54:49.617Z,90.38
2017-12-09T02:57:17.340Z,90.15
2017-12-09T02:59:45.006Z,90.24
2017-12-09T03:02:12.703Z,90.12
2017-12-09T03:04:40.628Z,89.85
2017-12-09T03:07:08.308Z,89.66
2017-12-09T03:09:35.975Z,90.08
2017-12-09T03:12:03.664Z,89.51
2017-12-09T03:14:31.314Z,89.79
2017-12-09T03:16:59.042Z,89.36
2017-12-09T03:19:26.723Z,88.87
2017-12-09T03:21:54.367Z,88.74
2017-12-09T03:24:22.050Z,88.79
2017-12-09T03:26:49.706Z,88.88
2017-12-09T03:29:17.374Z,89.17
2017-12-09T03:31:45.033Z,89.28
2017-12-09T03:34:12.809Z,89.25
2017-12-09T03:36:40.524Z,89.24
2017-12-09T03:39:08.414Z,89.06
2017-12-09T03:41:36.125Z,89.15
2017-12-09T03:44:03.808Z,89.31
2017-12-09T03:46:31.478Z,89.26
2017-12-09T03:48:59.130Z,89.25
2017-12-09T03:51:26.838Z,89.19
2017-12-09T03:53:54.487Z,88.76
2017-12-09T03:56:22.159Z,89.15
2017-12-09T03:58:49.835Z,89.27
2017-12-09T04:01:17.521Z,89.04
2017-12-09T04:03:45.179Z,89.16
2017-12-09T04:06:12.859Z,89.29
2017-12-09T04:08:40.515Z,89.46
2017-12-09T04:11:08.211Z,89.71
2017-12-09T04:13:35.874Z,89.88
2017-12-09T04:16:03.754Z,89.79
2017-12-09T04:18:31.404Z,89.64
2017-12-09T04:20:59.085Z,89.52
2017-12-09T04:23:26.742Z,89.70
2017-12-09T04:25:54.419Z,90.22
2017-12-09T04:28:22.062Z,90.14
2017-12-09T04:30:49.751Z,90.28
2017-12-09T04:33:17.386Z,90.20
2017-12-09T04:35:45.054Z,90.18
2017-12-09T04:38:12.702Z,90.06
2017-12-09T04:40:40.389Z,90.51
2017-12-09T04:43:08.050Z,90.61
2017-12-09T04:45:35.750Z,90.68
2017-12-09T04:48:03.411Z,90.36
2017-12-09T04:50:31.086Z,90.19
2017-12-09T04:52:58.728Z,90.11
2017-12-09T04:55:26.493Z,90.51
2017-12-09T04:57:54.159Z,90.05
2017-12-09T05:00:21.848Z,89.98
2017-12-09T05:02:49.502Z,89.78
2017-12-09T05:05:17.186Z,89.98
2017-12-09T05:07:44.842Z,89.88
2017-12-09T05:10:12.522Z,89.94
2017-12-09T05:12:40.204Z,89.86
2017-12-09T05:15:07.898Z,90.00
2017-12-09T05:17:35.551Z,90.08
2017-12-09T05:20:03.240Z,90.12
2017-12-09T05:22:30.923Z,89.99
2017-12-09T05:24:58.653Z,90.00
2017-12-09T05:27:26.323Z,90.21
2017-12-09T05:29:54.043Z,90.12
2017-12-09T05:32:21.726Z,89.89
2017-12-09T05:34:49.431Z,90.12
2017-12-09T05:37:17.130Z,90.18
2017-12-09T05:39:44.773Z,90.11
2017-12-09T05:42:12.481Z,89.77
2017-12-09T05:44:40.194Z,89.83
2017-12-09T05:47:07.863Z,89.72
2017-12-09T05:49:35.668Z,89.48
2017-12-09T05:52:03.313Z,89.57
2017-12-09T05:54:30.962Z,89.66
2017-12-09T05:56:58.650Z,89.67
2017-12-09T05:59:26.317Z,89.09
2017-12-09T06:01:54.002Z,89.22
2017-12-09T06:04:21.646Z,89.55
2017-12-09T06:06:49.338Z,89.62
2017-12-09T06:09:17.001Z,89.87
2017-12-09T06:11:44.776Z,89.56
2017-12-09T06:14:12.402Z,89.72
2017-12-09T06:16:40.086Z,89.55
2017-12-09T06:19:07.748Z,89.43
2017-12-09T06:21:35.441Z,89.44
2017-12-09T06:24:03.091Z,89.22
2017-12-09T06:26:30.842Z,89.54
2017-12-09T06:28:58.463Z,89.54
2017-12-09T06:31:26.134Z,89.35
2017-12-09T06:33:53.810Z,89.77
2017-12-09T06:36:21.446Z,89.84
2017-12-09T06:38:49.151Z,89.74
2017-12-09T06:41:16.798Z,89.47
2017-12-09T06:43:44.478Z,89.09
2017-12-09T06:46:12.146Z,89.14
2017-12-09T06:48:39.879Z,88.96
2017-12-09T06:51:07.525Z,89.12
2017-12-09T06:53:35.234Z,89.09
2017-12-09T06:56:02.884Z,88.90
2017-12-09T06:58:30.577Z,88.86
2017-12-09T07:00:58.246Z,89.19
2017-12-09T07:03:25.954Z,89.01
2017-12-09T07:05:53.652Z,88.86
2017-12-09T07:08:21.354Z,88.75
2017-12-09T07:10:48.966Z,88.50
2017-12-09T07:13:16.711Z,88.54
2017-12-09T07:15:44.355Z,89.02
2017-12-09T07:18:12.015Z,88.66
2017-12-09T07:20:39.721Z,87.92
2017-12-09T07:23:07.383Z,88.35
2017-12-09T07:25:35.086Z,88.34
2017-12-09T07:28:02.766Z,88.29
2017-12-09T07:30:30.462Z,88.82
2017-12-09T07:32:58.120Z,89.41
2017-12-09T07:35:25.813Z,90.35
2017-12-09T07:37:53.480Z,90.45
2017-12-09T07:40:21.180Z,90.43
2017-12-09T07:42:48.837Z,90.74
2017-12-09T07:45:16.578Z,90.46
2017-12-09T07:47:44.222Z,90.50
2017-12-09T07:50:11.924Z,90.82
2017-12-09T07:52:39.693Z,91.36
2017-12-09T07:55:07.404Z,91.98
2017-12-09T07:57:35.074Z,92.69
2017-12-09T08:00:02.791Z,92.85
2017-12-09T08:02:30.468Z,93.31
2017-12-09T08:04:58.172Z,93.89
2017-12-09T08:07:25.834Z,94.18
2017-12-09T08:09:53.543Z,94.60
2017-12-09T08:12:21.187Z,94.91
2017-12-09T08:14:48.875Z,95.55
2017-12-09T08:17:16.586Z,95.83
2017-12-09T08:19:44.286Z,96.36
2017-12-09T08:22:11.939Z,96.18
2017-12-09T08:24:39.647Z,96.52
2017-12-09T08:27:07.287Z,96.67
2017-12-09T08:29:35.094Z,96.46
2017-12-09T08:32:02.756Z,96.50
2017-12-09T08:34:30.455Z,96.83
2017-12-09T08:36:58.110Z,97.12
2017-12-09T08:39:25.798Z,97.28
2017-12-09T08:41:53.458Z,97.37
2017-12-09T08:44:21.188Z,97.74
2017-12-09T08:46:48.918Z,98.28
2017-12-09T08:49:16.602Z,98.89
2017-12-09T08:51:44.430Z,99.25
2017-12-09T08:54:12.147Z,99.44
2017-12-09T08:56:39.807Z,99.60
2017-12-09T08:59:07.495Z,99.84
2017-12-09T09:01:35.179Z,100.00
2017-12-09T09:04:02.874Z,100.00
2017-12-09T09:06:30.554Z,100.00
2017-12-09T09:08:58.252Z,100.00
2017-12-09T09:11:25.930Z,100.00
2017-12-09T09:13:53.630Z,100.00
2017-12-09T09:16:21.311Z,100.00
2017-12-09T09:18:49.086Z,100.00
2017-12-09T09:21:16.737Z,100.00
2017-12-09T09:23:44.402Z,100.00
2017-12-09T09:26:12.091Z,100.00
2017-12-09T09:28:39.798Z,100.00
2017-12-09T09:31:07.458Z,100.00
2017-12-09T09:33:35.187Z,100.00
2017-12-09T09:36:02.845Z,100.00
2017-12-09T09:38:30.502Z,100.00
2017-12-09T09:40:58.191Z,100.00
2017-12-09T09:43:25.882Z,100.00
2017-12-09T09:45:53.697Z,100.00
2017-12-09T09:48:21.403Z,100.00
2017-12-09T09:50:49.061Z,100.00
2017-12-09T09:53:16.786Z,100.00
2017-12-09T09:55:44.459Z,100.00
2017-12-09T09:58:12.177Z,100.00
2017-12-09T10:00:39.938Z,100.00
2017-12-09T10:03:07.675Z,100.00
2017-12-09T10:05:35.343Z,100.00
2017-12-09T10:08:03.014Z,100.00
2017-12-09T10:10:30.743Z,100.00
2017-12-09T10:12:58.403Z,100.00
2017-12-09T10:15:26.130Z,100.00
2017-12-09T10:17:53.823Z,100.00
2017-12-09T10:20:21.551Z,100.00
2017-12-09T10:22:49.245Z,100.00
2017-12-09T10:25:17.014Z,100.00
2017-12-09T10:27:44.681Z,100.00
2017-12-09T10:30:12.358Z,99.34
2017-12-09T10:32:40.006Z,98.90
2017-12-09T10:35:07.734Z,98.44
2017-12-09T10:37:35.420Z,98.39
2017-12-09T10:40:03.112Z,98.71
2017-12-09T10:42:30.769Z,98.83
2017-12-09T10:44:58.470Z,98.86
2017-12-09T10:47:26.143Z,98.66
2017-12-09T10:49:53.851Z,99.07
2017-12-09T10:52:21.730Z,99.40
2017-12-09T10:54:49.479Z,99.49
2017-12-09T10:57:17.167Z,99.35
2017-12-09T10:59:44.890Z,98.86
2017-12-09T11:02:12.561Z,98.57
2017-12-09T11:04:40.250Z,98.11
2017-12-09T11:07:07.913Z,97.95
2017-12-09T11:09:35.633Z,97.43
2017-12-09T11:12:03.289Z,96.97
2017-12-09T11:14:30.987Z,96.10
2017-12-09T11:16:58.670Z,95.79
2017-12-09T11:19:26.362Z,94.88
2017-12-09T11:21:54.030Z,94.83
2017-12-09T11:24:21.843Z,94.37
2017-12-09T11:26:49.555Z,93.47
2017-12-09T11:29:17.247Z,93.36
2017-12-09T11:31:44.922Z,93.73
2017-12-09T11:34:12.619Z,93.77
2017-12-09T11:36:40.277Z,93.66
2017-12-09T11:39:07.956Z,93.33
2017-12-09T11:41:35.619Z,93.57
2017-12-09T11:44:03.308Z,93.04
2017-12-09T11:46:30.965Z,93.40
2017-12-09T11:48:58.655Z,93.49
2017-12-09T11:51:26.416Z,93.61
2017-12-09T11:53:54.078Z,93.66
2017-12-09T11:56:21.792Z,93.57
2017-12-09T11:58:49.454Z,93.50
2017-12-09T12:01:17.177Z,93.20
2017-12-09T12:03:44.839Z,93.28
2017-12-09T12:06:12.514Z,92.90
2017-12-09T12:08:40.167Z,92.78
2017-12-09T12:11:08.020Z,92.84
2017-12-09T12:13:35.679Z,92.60
2017-12-09T12:16:03.371Z,92.94
2017-12-09T12:18:31.022Z,92.90
2017-12-09T12:20:58.711Z,92.91
2017-12-09T12:23:26.393Z,92.93
2017-12-09T12:25:54.088Z,92.97
2017-12-09T12:28:21.746Z,92.99
2017-12-09T12:30:49.453Z,92.94
2017-12-09T12:33:17.103Z,92.65
2017-12-09T12:35:44.807Z,92.16
2017-12-09T12:38:12.479Z,91.91
2017-12-09T12:40:40.167Z,91.82
2017-12-09T12:43:07.831Z,94.33
2017-12-09T12:45:35.534Z,90.06
2017-12-09T12:48:03.208Z,89.90
2017-12-09T12:50:30.899Z,90.38
2017-12-09T12:52:58.566Z,90.62
2017-12-09T12:55:26.253Z,90.60
2017-12-09T12:57:53.899Z,90.84
2017-12-09T13:00:21.599Z,90.81
2017-12-09T13:02:49.323Z,90.86
2017-12-09T13:05:17.021Z,90.77
2017-12-09T13:07:44.750Z,90.84
2017-12-09T13:10:12.410Z,90.75
2017-12-09T13:12:40.110Z,91.12
2017-12-09T13:15:07.754Z,91.39
2017-12-09T13:17:35.463Z,91.71
2017-12-09T13:20:03.119Z,91.79
2017-12-09T13:22:30.810Z,91.47
2017-12-09T13:24:58.463Z,91.28
2017-12-09T13:27:26.216Z,91.33
2017-12-09T13:29:53.793Z,91.52
2017-12-09T13:32:21.503Z,91.72
2017-12-09T13:34:49.158Z,91.65
2017-12-09T13:37:16.857Z,91.16
2017-12-09T13:39:44.507Z,91.14
2017-12-09T13:42:12.229Z,90.60
2017-12-09T13:44:39.883Z,90.80
2017-12-09T13:47:07.583Z,91.09
2017-12-09T13:49:35.242Z,90.39
2017-12-09T13:52:02.948Z,90.73
2017-12-09T13:54:30.599Z,90.25
2017-12-09T13:56:58.324Z,90.35
2017-12-09T13:59:25.998Z,89.97
2017-12-09T14:01:53.706Z,89.83
2017-12-09T14:04:21.375Z,90.17
2017-12-09T14:06:49.103Z,89.37
2017-12-09T14:09:16.694Z,89.46
2017-12-09T14:11:44.367Z,89.36
2017-12-09T14:14:12.082Z,89.28
2017-12-09T14:16:39.734Z,89.71
2017-12-09T14:19:07.449Z,89.22
2017-12-09T14:21:35.160Z,89.26
2017-12-09T14:24:02.866Z,88.78
2017-12-09T14:26:30.545Z,88.82
2017-12-09T14:28:58.280Z,89.08
2017-12-09T14:31:25.983Z,88.70
2017-12-09T14:33:53.746Z,88.82
2017-12-09T14:36:21.414Z,88.52
2017-12-09T14:38:49.145Z,88.18
2017-12-09T14:41:16.787Z,88.44
2017-12-09T14:43:44.477Z,88.52
2017-12-09T14:46:12.146Z,87.59
2017-12-09T14:48:39.915Z,87.59
2017-12-09T14:51:07.590Z,87.57
2017-12-09T14:53:35.279Z,87.16
2017-12-09T14:56:03.016Z,87.63
2017-12-09T14:58:30.793Z,87.42
2017-12-09T15:00:58.446Z,87.09
2017-12-09T15:03:26.138Z,86.57
2017-12-09T15:05:53.821Z,86.59
2017-12-09T15:08:21.530Z,86.78
2017-12-09T15:10:49.123Z,86.31
2017-12-09T15:13:16.838Z,86.16
2017-12-09T15:15:44.450Z,85.71
2017-12-09T15:18:12.149Z,85.66
2017-12-09T15:20:39.852Z,85.33
2017-12-09T15:23:07.652Z,85.40
2017-12-09T15:25:35.319Z,85.44
2017-12-09T15:28:03.052Z,85.68
2017-12-09T15:30:30.810Z,85.17
2017-12-09T15:32:58.498Z,85.19
2017-12-09T15:35:26.169Z,85.00
2017-12-09T15:37:53.860Z,85.31
2017-12-09T15:40:21.531Z,85.31
2017-12-09T15:42:49.219Z,85.26
2017-12-09T15:45:16.802Z,85.18
2017-12-09T15:47:44.454Z,85.18
2017-12-09T15:50:12.152Z,85.14
2017-12-09T15:52:39.814Z,85.42
2017-12-09T15:55:07.505Z,85.27
2017-12-09T15:57:35.256Z,84.29
2017-12-09T16:00:03.039Z,84.75
2017-12-09T16:02:30.722Z,85.28
2017-12-09T16:04:58.555Z,84.39
2017-12-09T16:07:26.303Z,84.94
2017-12-09T16:09:54.045Z,84.98
2017-12-09T16:12:21.788Z,85.18
2017-12-09T16:14:49.727Z,85.32
2017-12-09T16:17:17.423Z,85.35
2017-12-09T16:19:45.170Z,85.59
2017-12-09T16:22:12.935Z,85.48
2017-12-09T16:24:40.624Z,85.98
2017-12-09T16:27:08.327Z,85.50
2017-12-09T16:29:36.099Z,85.85
2017-12-09T16:32:03.767Z,85.56
2017-12-09T16:34:31.479Z,85.57
2017-12-09T16:36:59.170Z,85.56
2017-12-09T16:39:26.922Z,85.19
2017-12-09T16:41:54.784Z,85.30
2017-12-09T16:44:22.499Z,85.33
2017-12-09T16:46:50.214Z,84.89
2017-12-09T16:49:17.875Z,85.17
2017-12-09T16:51:45.642Z,84.57
2017-12-09T16:54:13.322Z,84.64
2017-12-09T16:56:41.048Z,84.66
2017-12-09T16:59:08.713Z,84.74
2017-12-09T17:01:36.395Z,84.85
2017-12-09T17:04:04.073Z,83.58
2017-12-09T17:06:31.768Z,84.01
2017-12-09T17:08:59.471Z,84.57
2017-12-09T17:11:27.190Z,85.58
2017-12-09T17:13:54.851Z,84.99
2017-12-09T17:16:22.534Z,84.58
2017-12-09T17:18:50.207Z,84.44
2017-12-09T17:21:17.938Z,84.48
2017-12-09T17:23:45.618Z,84.48
2017-12-09T17:26:13.322Z,84.02
2017-12-09T17:28:41.119Z,83.68
2017-12-09T17:31:08.816Z,83.44
2017-12-09T17:33:36.484Z,83.76
2017-12-09T17:36:04.165Z,83.59
2017-12-09T17:38:31.883Z,82.50
2017-12-09T17:40:59.595Z,82.74
2017-12-09T17:43:27.258Z,82.83
2017-12-09T17:45:55.062Z,82.72
2017-12-09T17:48:22.767Z,82.59
2017-12-09T17:50:50.474Z,82.34
2017-12-09T17:53:18.150Z,81.92
2017-12-09T17:55:45.835Z,81.63
2017-12-09T17:58:13.507Z,82.21
2017-12-09T18:00:41.209Z,82.33
2017-12-09T18:03:08.880Z,82.67
2017-12-09T18:05:36.575Z,82.17
2017-12-09T18:08:04.281Z,82.06
2017-12-09T18:10:31.988Z,81.55
2017-12-09T18:12:59.666Z,81.84
2017-12-09T18:15:27.513Z,81.16
2017-12-09T18:17:55.261Z,81.62
2017-12-09T18:20:22.928Z,81.17
2017-12-09T18:22:50.737Z,81.66
2017-12-09T18:25:18.410Z,82.28
2017-12-09T18:27:46.173Z,82.34
2017-12-09T18:30:14.071Z,82.33
2017-12-09T18:32:43.206Z,82.57
2017-12-09T18:35:10.906Z,82.69
2017-12-09T18:37:38.614Z,82.76
2017-12-09T18:40:06.275Z,82.54
2017-12-09T18:42:33.992Z,82.85
2017-12-09T18:45:01.684Z,82.90
2017-12-09T18:47:29.346Z,82.98
2017-12-09T18:49:57.119Z,83.14
2017-12-09T18:52:24.877Z,82.90
2017-12-09T18:54:52.583Z,83.40
2017-12-09T18:57:20.293Z,83.37
2017-12-09T18:59:48.051Z,83.57
2017-12-09T19:02:15.774Z,83.70
2017-12-09T19:04:43.429Z,83.57
2017-12-09T19:07:11.163Z,83.60
2017-12-09T19:09:38.843Z,83.51
2017-12-09T19:12:06.507Z,83.11
2017-12-09T19:14:34.212Z,82.92
2017-12-09T19:17:01.940Z,83.19
2017-12-09T19:19:29.620Z,83.76
2017-12-09T19:21:57.312Z,83.75
2017-12-09T19:24:25.035Z,83.73
2017-12-09T19:26:52.736Z,83.55
2017-12-09T19:29:20.486Z,82.95
2017-12-09T19:31:48.172Z,82.97
2017-12-09T19:34:15.879Z,82.97
2017-12-09T19:36:43.519Z,83.17
2017-12-09T19:39:11.221Z,82.59
2017-12-09T19:41:39.092Z,83.02
2017-12-09T19:44:06.804Z,83.16
2017-12-09T19:46:34.543Z,82.88
2017-12-09T19:49:02.246Z,83.32
2017-12-09T19:51:29.939Z,83.68
2017-12-09T19:53:57.674Z,83.32
2017-12-09T19:56:25.348Z,82.99
2017-12-09T19:58:53.110Z,82.88
2017-12-09T20:01:20.781Z,83.04
2017-12-09T20:03:48.500Z,83.52
2017-12-09T20:06:16.215Z,83.46
2017-12-09T20:08:43.936Z,83.41
2017-12-09T20:11:11.667Z,83.41
2017-12-09T20:13:39.364Z,82.81
2017-12-09T20:16:07.089Z,83.28
2017-12-09T20:18:34.929Z,83.04
2017-12-09T20:21:02.625Z,83.18
2017-12-09T20:23:30.506Z,83.14
2017-12-09T20:25:58.176Z,83.52
2017-12-09T20:28:25.939Z,83.53
2017-12-09T20:30:53.630Z,83.39
2017-12-09T20:33:21.370Z,83.76
2017-12-09T20:35:49.036Z,83.83
2017-12-09T20:38:16.747Z,83.74
2017-12-09T20:40:44.414Z,83.47
2017-12-09T20:43:12.122Z,83.34
2017-12-09T20:45:39.799Z,83.45
2017-12-09T20:48:07.575Z,83.90
2017-12-09T20:50:35.319Z,83.70
2017-12-09T20:53:03.018Z,83.75
2017-12-09T20:55:30.866Z,83.48
2017-12-09T20:57:58.556Z,83.69
2017-12-09T21:00:26.220Z,83.41
2017-12-09T21:02:53.915Z,83.76
2017-12-09T21:05:21.680Z,83.79
2017-12-09T21:07:49.386Z,83.91
2017-12-09T21:10:17.100Z,84.24
2017-12-09T21:12:44.834Z,84.39
2017-12-09T21:15:12.475Z,84.25
2017-12-09T21:17:40.255Z,84.35
2017-12-09T21:20:08.063Z,84.20
2017-12-09T21:22:35.957Z,84.38
2017-12-09T21:25:03.689Z,84.34
2017-12-09T21:27:31.349Z,84.20
2017-12-09T21:29:59.066Z,84.28
2017-12-09T21:32:26.754Z,84.24
2017-12-09T21:34:54.494Z,84.17
2017-12-09T21:37:22.222Z,84.63
2017-12-09T21:39:49.975Z,84.70
2017-12-09T21:42:17.698Z,84.94
2017-12-09T21:44:45.390Z,84.79
2017-12-09T21:47:13.086Z,85.04
2017-12-09T21:49:40.777Z,85.22
2017-12-09T21:52:08.441Z,85.03
2017-12-09T21:54:36.232Z,84.65
2017-12-09T21:57:03.900Z,85.17
2017-12-09T21:59:31.616Z,84.87
2017-12-09T22:01:59.314Z,85.11
2017-12-09T22:04:27.025Z,84.86
2017-12-09T22:06:54.715Z,85.09
2017-12-09T22:09:22.533Z,85.28
2017-12-09T22:11:50.182Z,85.16
2017-12-09T22:14:17.946Z,85.42
2017-12-09T22:16:45.594Z,84.65
2017-12-09T22:19:13.302Z,85.12
2017-12-09T22:21:40.973Z,85.29
2017-12-09T22:24:08.801Z,85.53
2017-12-09T22:26:36.487Z,85.42
2017-12-09T22:29:04.206Z,85.65
2017-12-09T22:31:31.912Z,85.81
2017-12-09T22:33:59.651Z,85.52
2017-12-09T22:36:27.304Z,85.29
2017-12-09T22:38:54.964Z,85.22
2017-12-09T22:41:22.648Z,85.29
2017-12-09T22:43:50.394Z,85.09
2017-12-09T22:46:18.137Z,85.18
2017-12-09T22:48:45.799Z,85.11
2017-12-09T22:51:13.459Z,85.26
2017-12-09T22:53:41.219Z,85.05
2017-12-09T22:56:08.936Z,84.82
2017-12-09T22:58:36.551Z,84.65
2017-12-09T23:01:04.234Z,84.61
2017-12-09T23:03:31.906Z,84.66
2017-12-09T23:05:59.631Z,84.72
2017-12-09T23:08:27.295Z,84.80
2017-12-09T23:10:55.074Z,84.88
2017-12-09T23:13:22.760Z,85.09
2017-12-09T23:15:50.483Z,84.92
2017-12-09T23:18:18.165Z,85.02
2017-12-09T23:20:45.932Z,85.20
2017-12-09T23:23:13.625Z,84.93
2017-12-09T23:25:41.274Z,85.08
2017-12-09T23:28:08.983Z,85.14
2017-12-09T23:30:36.645Z,85.42
2017-12-09T23:33:04.374Z,85.56
2017-12-09T23:35:32.042Z,85.89
2017-12-09T23:37:59.740Z,85.75
2017-12-09T23:40:27.406Z,85.58
2017-12-09T23:42:55.107Z,85.71
2017-12-09T23:45:22.771Z,85.74
2017-12-09T23:47:50.470Z,85.48
2017-12-09T23:50:18.137Z,84.90
2017-12-09T23:52:45.829Z,85.04
2017-12-09T23:55:13.490Z,85.09
2017-12-09T23:57:41.229Z,85.15
